Terminal Aerodrome Forecast
Issued by NWS Shreveport, LA

Home | Current Version | Previous Version | Text Only | Print | Product List | Glossary On
Versions: 1 2 3 4 5 6 7 8 9 10 11 12 13 14 15 16 17
000
FTUS44 KSHV 280551
TAFELD
TAF
KELD 280551Z 2806/0106 14007KT P6SM BKN015
     FM280900 18007KT 4SM BR OVC009
     FM281500 19012G18KT P6SM BKN015 OVC025
     FM282100 19015G24KT P6SM BKN035 BKN250=

USA.gov is the U.S. government's official web portal to all federal, state and local government web resources and services.